Time;durP1;ratioP1;P1;durP2;ratioP2;P2;SDS_P1;SDS_P2;PMS_P1;PMS_P2;Temp;Humidity;BMP_temperature;BMP_pressure;BME280_temperature;BME280_humidity;BME280_pressure;Samples;Min_cycle;Max_cycle;Signal;HPM_P1;HPM_P2
2023/06/10 00:00:07;;;;;;;;;;;;;;;;;;4941603;29;19921;-82
2023/06/10 00:02:53;;;;;;;;;;;;;;;;;;4927900;29;19929;-82
2023/06/10 00:05:40;;;;;;;;;;;;;;;;;;4931531;28;20372;-82
2023/06/10 00:08:26;;;;;;;;;;;;;;;;;;4940491;28;19930;-84
2023/06/10 00:11:13;;;;;;;;;;;;;;;;;;4928047;29;20334;-83
2023/06/10 00:14:00;;;;;;;;;;;;;;;;;;4942020;28;19919;-83
2023/06/10 00:16:46;;;;;;;;;;;;;;;;;;4941943;28;19938;-81
2023/06/10 00:19:33;;;;;;;;;;;;;;;;;;4944875;28;19926;-80
2023/06/10 00:22:22;;;;;;;;;;;;;;;;;;4927473;28;19922;-80
2023/06/10 00:25:09;;;;;;;;;;;;;;;;;;4933379;28;20195;-81
2023/06/10 00:27:55;;;;;;;;;;;;;;;;;;4938364;28;19939;-82
2023/06/10 00:30:41;;;;;;;;;;;;;;;;;;4937064;28;19926;-81
2023/06/10 00:33:28;;;;;;;;;;;;;;;;;;4947010;28;19919;-80
2023/06/10 00:36:15;;;;;;;;;;;;;;;;;;4936919;28;19930;-82
2023/06/10 00:39:01;;;;;;;;;;;;;;;;;;4948577;28;19953;-81
2023/06/10 00:41:48;;;;;;;;;;;;;;;;;;4944549;28;20393;-81
2023/06/10 00:44:34;;;;;;;;;;;;;;;;;;4940854;28;19923;-81
2023/06/10 00:47:21;;;;;;;;;;;;;;;;;;4943032;28;19915;-80
2023/06/10 00:50:07;;;;;;;;;;;;;;;;;;4935085;28;19934;-82
2023/06/10 00:52:54;;;;;;;;;;;;;;;;;;4933412;28;20409;-81
2023/06/10 00:55:40;;;;;;;;;;;;;;;;;;4944655;28;20221;-78
2023/06/10 00:58:27;;;;;;;;;;;;;;;;;;4933930;29;19918;-83
2023/06/10 01:01:13;;;;;;;;;;;;;;;;;;4933304;29;19945;-83
2023/06/10 01:04:00;;;;;;;;;;;;;;;;;;4919671;29;19919;-83
2023/06/10 01:06:47;;;;;;;;;;;;;;;;;;4914169;29;19923;-82
2023/06/10 01:09:34;;;;;;;;;;;;;;;;;;4916567;29;19934;-82
2023/06/10 01:12:20;;;;;;;;;;;;;;;;;;4929867;28;19923;-83
2023/06/10 01:15:07;;;;;;;;;;;;;;;;;;4916151;29;19925;-83
2023/06/10 01:17:54;;;;;;;;;;;;;;;;;;4918095;29;19923;-82
2023/06/10 01:20:40;;;;;;;;;;;;;;;;;;4934285;28;20278;-79
2023/06/10 01:23:27;;;;;;;;;;;;;;;;;;4922646;29;19927;-83
2023/06/10 01:26:13;;;;;;;;;;;;;;;;;;4913981;28;19918;-79
2023/06/10 01:29:00;;;;;;;;;;;;;;;;;;4943439;28;19931;-83
2023/06/10 01:31:46;;;;;;;;;;;;;;;;;;4947451;28;20421;-82
2023/06/10 01:34:33;;;;;;;;;;;;;;;;;;4947710;28;19922;-79
2023/06/10 01:37:19;;;;;;;;;;;;;;;;;;4941475;29;20380;-79
2023/06/10 01:40:06;;;;;;;;;;;;;;;;;;4932602;29;20413;-82
2023/06/10 01:42:52;;;;;;;;;;;;;;;;;;4937451;29;20370;-82
2023/06/10 01:45:39;;;;;;;;;;;;;;;;;;4921372;29;19922;-82
2023/06/10 01:48:26;;;;;;;;;;;;;;;;;;4921561;29;19950;-82
2023/06/10 01:51:12;;;;;;;;;;;;;;;;;;4926296;29;19915;-81
2023/06/10 01:53:58;;;;;;;;;;;;;;;;;;4913266;29;19919;-81
2023/06/10 01:56:45;;;;;;;;;;;;;;;;;;4918343;29;19927;-79
2023/06/10 01:59:31;;;;;;;;;;;;;;;;;;4923986;29;20028;-80
2023/06/10 02:02:18;;;;;;;;;;;;;;;;;;4941712;29;19926;-78
2023/06/10 02:05:05;;;;;;;;;;;;;;;;;;4925561;29;20256;-79
2023/06/10 02:07:51;;;;;;;;;;;;;;;;;;4944087;28;20423;-80
2023/06/10 02:10:38;;;;;;;;;;;;;;;;;;4942881;29;19926;-81
2023/06/10 02:13:24;;;;;;;;;;;;;;;;;;4942385;29;19922;-80
2023/06/10 02:16:12;;;;;;;;;;;;;;;;;;4937725;28;20337;-80
2023/06/10 02:19:00;;;;;;;;;;;;;;;;;;4934796;28;19919;-80
2023/06/10 02:21:47;;;;;;;;;;;;;;;;;;4940721;29;19929;-80
2023/06/10 02:24:33;;;;;;;;;;;;;;;;;;4942714;28;19918;-80
2023/06/10 02:27:20;;;;;;;;;;;;;;;;;;4946494;28;19927;-80
2023/06/10 02:30:09;;;;;;;;;;;;;;;;;;4945819;28;19952;-80
2023/06/10 02:32:56;;;;;;;;;;;;;;;;;;4929116;28;20666;-79
2023/06/10 02:35:42;;;;;;;;;;;;;;;;;;4944719;28;19918;-80
2023/06/10 02:38:29;;;;;;;;;;;;;;;;;;4938417;28;20364;-80
2023/06/10 02:41:15;;;;;;;;;;;;;;;;;;4947952;28;19923;-82
2023/06/10 02:44:02;;;;;;;;;;;;;;;;;;4937096;28;19923;-80
2023/06/10 02:46:48;;;;;;;;;;;;;;;;;;4933528;28;19941;-79
2023/06/10 02:49:35;;;;;;;;;;;;;;;;;;4929702;28;19927;-81
2023/06/10 02:52:22;;;;;;;;;;;;;;;;;;4939583;28;19918;-82
2023/06/10 02:55:10;;;;;;;;;;;;;;;;;;4945805;28;20383;-82
2023/06/10 02:57:56;;;;;;;;;;;;;;;;;;4945749;28;20397;-82
2023/06/10 03:00:43;;;;;;;;;;;;;;;;;;4944932;28;19923;-81
2023/06/10 03:03:30;;;;;;;;;;;;;;;;;;4942633;29;20389;-79
2023/06/10 03:06:17;;;;;;;;;;;;;;;;;;4941434;28;19923;-80
2023/06/10 03:09:04;;;;;;;;;;;;;;;;;;4944997;28;19926;-79
2023/06/10 03:11:50;;;;;;;;;;;;;;;;;;4944481;28;19919;-80
2023/06/10 03:14:38;;;;;;;;;;;;;;;;;;4948191;28;19948;-79
2023/06/10 03:17:25;;;;;;;;;;;;;;;;;;4938403;29;19923;-81
2023/06/10 03:20:11;;;;;;;;;;;;;;;;;;4943768;29;19922;-79
2023/06/10 03:22:58;;;;;;;;;;;;;;;;;;4940643;28;20563;-81
2023/06/10 03:25:45;;;;;;;;;;;;;;;;;;4941286;28;20011;-80
2023/06/10 03:28:31;;;;;;;;;;;;;;;;;;4941723;29;19931;-80
2023/06/10 03:31:18;;;;;;;;;;;;;;;;;;4932256;28;19933;-82
2023/06/10 03:34:04;;;;;;;;;;;;;;;;;;4930360;29;19922;-81
2023/06/10 03:36:51;;;;;;;;;;;;;;;;;;4939028;29;19923;-81
2023/06/10 03:39:37;;;;;;;;;;;;;;;;;;4935341;29;19919;-83
2023/06/10 03:42:24;;;;;;;;;;;;;;;;;;4937384;28;19927;-82
2023/06/10 03:45:11;;;;;;;;;;;;;;;;;;4928531;29;19918;-83
2023/06/10 03:47:57;;;;;;;;;;;;;;;;;;4944831;28;19929;-80
2023/06/10 03:50:44;;;;;;;;;;;;;;;;;;4942828;29;19918;-80
2023/06/10 03:53:30;;;;;;;;;;;;;;;;;;4940328;29;19923;-82
2023/06/10 03:56:17;;;;;;;;;;;;;;;;;;4927317;29;20362;-81
2023/06/10 03:59:05;;;;;;;;;;;;;;;;;;4941167;28;19969;-81
2023/06/10 04:01:51;;;;;;;;;;;;;;;;;;4941416;28;19929;-82
2023/06/10 04:04:38;;;;;;;;;;;;;;;;;;4936299;29;19925;-83
2023/06/10 04:07:25;;;;;;;;;;;;;;;;;;4946253;28;19922;-82
2023/06/10 04:10:11;;;;;;;;;;;;;;;;;;4937643;29;20463;-82
2023/06/10 04:12:58;;;;;;;;;;;;;;;;;;4943857;28;19930;-81
2023/06/10 04:15:44;;;;;;;;;;;;;;;;;;4941425;28;19995;-81
2023/06/10 04:18:31;;;;;;;;;;;;;;;;;;4941106;29;20286;-81
2023/06/10 04:21:17;;;;;;;;;;;;;;;;;;4940098;29;19919;-83
2023/06/10 04:24:04;;;;;;;;;;;;;;;;;;4935144;29;19919;-82
2023/06/10 04:26:50;;;;;;;;;;;;;;;;;;4938427;28;19927;-82
2023/06/10 04:29:37;;;;;;;;;;;;;;;;;;4942164;29;19957;-81
2023/06/10 04:32:26;;;;;;;;;;;;;;;;;;4947277;28;24416;-82
2023/06/10 04:35:13;;;;;;;;;;;;;;;;;;4936227;28;19999;-82
2023/06/10 04:38:02;;;;;;;;;;;;;;;;;;4951498;28;19919;-82
2023/06/10 04:40:49;;;;;;;;;;;;;;;;;;4939703;29;19918;-83
2023/06/10 04:43:35;;;;;;;;;;;;;;;;;;4936823;29;19946;-81
2023/06/10 04:46:22;;;;;;;;;;;;;;;;;;4941755;29;19915;-84
2023/06/10 04:49:08;;;;;;;;;;;;;;;;;;4939841;29;20308;-81
2023/06/10 04:51:55;;;;;;;;;;;;;;;;;;4935936;29;19922;-82
2023/06/10 04:54:41;;;;;;;;;;;;;;;;;;4943764;28;19922;-81
2023/06/10 04:57:28;;;;;;;;;;;;;;;;;;4931569;29;19927;-82
2023/06/10 05:00:14;;;;;;;;;;;;;;;;;;4939231;28;19926;-80
2023/06/10 05:03:01;;;;;;;;;;;;;;;;;;4941251;28;19973;-82
2023/06/10 05:05:47;;;;;;;;;;;;;;;;;;4941103;29;19926;-79
2023/06/10 05:08:34;;;;;;;;;;;;;;;;;;4933665;28;19931;-80
2023/06/10 05:11:20;;;;;;;;;;;;;;;;;;4935101;29;19918;-80
2023/06/10 05:14:07;;;;;;;;;;;;;;;;;;4934535;29;19922;-81
2023/06/10 05:16:54;;;;;;;;;;;;;;;;;;4943572;28;19973;-82
2023/06/10 05:19:41;;;;;;;;;;;;;;;;;;4942797;28;19925;-81
2023/06/10 05:22:28;;;;;;;;;;;;;;;;;;4944397;28;19933;-81
2023/06/10 05:25:14;;;;;;;;;;;;;;;;;;4943635;28;19942;-81
2023/06/10 05:28:01;;;;;;;;;;;;;;;;;;4939513;28;20002;-81
2023/06/10 05:30:47;;;;;;;;;;;;;;;;;;4944537;28;19930;-81
2023/06/10 05:33:34;;;;;;;;;;;;;;;;;;4942430;28;19951;-81
2023/06/10 05:36:20;;;;;;;;;;;;;;;;;;4941958;29;19925;-81
2023/06/10 05:39:07;;;;;;;;;;;;;;;;;;4943486;28;19922;-81
2023/06/10 05:41:53;;;;;;;;;;;;;;;;;;4932545;28;20012;-81
2023/06/10 05:44:40;;;;;;;;;;;;;;;;;;4937049;28;19923;-81
2023/06/10 05:47:26;;;;;;;;;;;;;;;;;;4940442;28;19923;-80
2023/06/10 05:50:13;;;;;;;;;;;;;;;;;;4949971;28;19933;-80
2023/06/10 05:52:59;;;;;;;;;;;;;;;;;;4935162;28;19929;-80
2023/06/10 05:55:46;;;;;;;;;;;;;;;;;;4932672;29;20397;-80
2023/06/10 05:58:32;;;;;;;;;;;;;;;;;;4938814;29;19925;-80
2023/06/10 06:01:19;;;;;;;;;;;;;;;;;;4938160;28;19923;-80
2023/06/10 06:04:05;;;;;;;;;;;;;;;;;;4949089;28;19923;-81
2023/06/10 06:06:52;;;;;;;;;;;;;;;;;;4959017;28;19919;-80
2023/06/10 06:09:38;;;;;;;;;;;;;;;;;;4942768;28;19927;-81
2023/06/10 06:12:25;;;;;;;;;;;;;;;;;;4944570;28;19919;-81
2023/06/10 06:15:11;;;;;;;;;;;;;;;;;;4915065;29;19923;-80
2023/06/10 06:17:58;;;;;;;;;;;;;;;;;;4928802;29;20008;-81
2023/06/10 06:20:44;;;;;;;;;;;;;;;;;;4929944;29;19926;-81
2023/06/10 06:23:31;;;;;;;;;;;;;;;;;;4940984;28;19929;-80
2023/06/10 06:26:17;;;;;;;;;;;;;;;;;;4947411;28;19949;-80
2023/06/10 06:29:04;;;;;;;;;;;;;;;;;;4936344;28;20148;-80
2023/06/10 06:31:50;;;;;;;;;;;;;;;;;;4939215;29;19918;-79
2023/06/10 06:34:37;;;;;;;;;;;;;;;;;;4941364;28;19919;-80
2023/06/10 06:37:26;;;;;;;;;;;;;;;;;;4949432;28;19922;-82
2023/06/10 06:40:13;;;;;;;;;;;;;;;;;;4945772;28;20307;-78
2023/06/10 06:42:59;;;;;;;;;;;;;;;;;;4944706;28;19946;-76
2023/06/10 06:45:46;;;;;;;;;;;;;;;;;;4944138;28;19918;-77
2023/06/10 06:48:32;;;;;;;;;;;;;;;;;;4943904;28;19923;-75
2023/06/10 06:51:19;;;;;;;;;;;;;;;;;;4941373;28;19929;-76
2023/06/10 06:54:05;;;;;;;;;;;;;;;;;;4931456;28;19945;-76
2023/06/10 06:56:52;;;;;;;;;;;;;;;;;;4935155;28;19922;-76
2023/06/10 06:59:38;;;;;;;;;;;;;;;;;;4944450;29;20392;-75
2023/06/10 07:02:25;;;;;;;;;;;;;;;;;;4923577;28;19922;-80
2023/06/10 07:05:11;;;;;;;;;;;;;;;;;;4941183;28;19919;-91
2023/06/10 07:07:58;;;;;;;;;;;;;;;;;;4940100;28;19933;-82
2023/06/10 07:10:44;;;;;;;;;;;;;;;;;;4941673;28;19957;-83
2023/06/10 07:13:31;;;;;;;;;;;;;;;;;;4939614;29;19929;-85
2023/06/10 07:16:20;;;;;;;;;;;;;;;;;;4943680;28;19933;-84
2023/06/10 07:19:06;;;;;;;;;;;;;;;;;;4943698;28;19930;-80
2023/06/10 07:21:53;;;;;;;;;;;;;;;;;;4931911;28;19918;-77
2023/06/10 07:24:40;;;;;;;;;;;;;;;;;;4937177;29;19922;-78
2023/06/10 07:27:26;;;;;;;;;;;;;;;;;;4942201;28;19940;-77
2023/06/10 07:30:13;;;;;;;;;;;;;;;;;;4941631;28;19937;-78
2023/06/10 07:32:59;;;;;;;;;;;;;;;;;;4926066;28;19930;-79
2023/06/10 07:35:46;;;;;;;;;;;;;;;;;;4941425;28;19945;-79
2023/06/10 07:38:32;;;;;;;;;;;;;;;;;;4945238;28;19919;-79
2023/06/10 07:41:19;;;;;;;;;;;;;;;;;;4943333;28;19927;-80
2023/06/10 07:44:05;;;;;;;;;;;;;;;;;;4930876;28;19929;-79
2023/06/10 07:46:52;;;;;;;;;;;;;;;;;;4944498;28;19929;-79
2023/06/10 07:49:39;;;;;;;;;;;;;;;;;;4935734;28;19935;-78
2023/06/10 07:52:26;;;;;;;;;;;;;;;;;;4942762;28;20517;-79
2023/06/10 07:55:12;;;;;;;;;;;;;;;;;;4955285;28;20310;-78
2023/06/10 07:57:58;;;;;;;;;;;;;;;;;;4940502;28;19927;-79
2023/06/10 08:00:45;;;;;;;;;;;;;;;;;;4937286;28;19934;-77
2023/06/10 08:03:31;;;;;;;;;;;;;;;;;;4932578;28;19922;-78
2023/06/10 08:06:18;;;;;;;;;;;;;;;;;;4943873;28;19929;-79
2023/06/10 08:09:04;;;;;;;;;;;;;;;;;;4937666;28;19949;-79
2023/06/10 08:11:51;;;;;;;;;;;;;;;;;;4929302;28;19918;-79
2023/06/10 08:14:38;;;;;;;;;;;;;;;;;;4942857;28;19933;-81
2023/06/10 08:17:24;;;;;;;;;;;;;;;;;;4941973;28;19923;-87
2023/06/10 08:20:11;;;;;;;;;;;;;;;;;;4939007;28;19919;-75
2023/06/10 08:22:57;;;;;;;;;;;;;;;;;;4944142;28;19918;-76
2023/06/10 08:25:44;;;;;;;;;;;;;;;;;;4934747;28;19925;-82
2023/06/10 08:28:30;;;;;;;;;;;;;;;;;;4935373;28;20658;-80
2023/06/10 08:31:17;;;;;;;;;;;;;;;;;;4935117;29;19929;-78
2023/06/10 08:34:03;;;;;;;;;;;;;;;;;;4946206;28;19926;-84
2023/06/10 08:36:53;;;;;;;;;;;;;;;;;;4942697;28;19933;-86
2023/06/10 08:39:39;;;;;;;;;;;;;;;;;;4945656;28;20011;-80
2023/06/10 08:42:26;;;;;;;;;;;;;;;;;;4939775;28;19929;-77
2023/06/10 08:45:12;;;;;;;;;;;;;;;;;;4939832;28;19923;-78
2023/06/10 08:47:59;;;;;;;;;;;;;;;;;;4936816;28;19927;-78
2023/06/10 08:50:46;;;;;;;;;;;;;;;;;;4944880;28;19930;-79
2023/06/10 08:53:33;;;;;;;;;;;;;;;;;;4945916;28;19934;-82
2023/06/10 08:56:20;;;;;;;;;;;;;;;;;;4944335;28;19919;-81
2023/06/10 08:59:06;;;;;;;;;;;;;;;;;;4942562;28;20722;-90
2023/06/10 09:01:53;;;;;;;;;;;;;;;;;;4945252;28;19926;-81
2023/06/10 09:04:39;;;;;;;;;;;;;;;;;;4942313;29;20298;-81
2023/06/10 09:07:26;;;;;;;;;;;;;;;;;;4938546;28;19941;-83
2023/06/10 09:10:13;;;;;;;;;;;;;;;;;;4941641;29;19931;-82
2023/06/10 09:12:59;;;;;;;;;;;;;;;;;;4942958;29;19933;-86
2023/06/10 09:15:46;;;;;;;;;;;;;;;;;;4936416;28;19933;-81
2023/06/10 09:18:34;;;;;;;;;;;;;;;;;;4938053;28;19922;-83
2023/06/10 09:21:21;;;;;;;;;;;;;;;;;;4942831;28;20430;-85
2023/06/10 09:24:07;;;;;;;;;;;;;;;;;;4942828;29;19918;-84
2023/06/10 09:26:53;;;;;;;;;;;;;;;;;;4946715;28;19927;-86
2023/06/10 09:29:43;;;;;;;;;;;;;;;;;;4949303;28;19926;-83
2023/06/10 09:32:30;;;;;;;;;;;;;;;;;;4947717;29;19933;-83
2023/06/10 09:35:16;;;;;;;;;;;;;;;;;;4946426;28;19922;-85
2023/06/10 09:38:03;;;;;;;;;;;;;;;;;;4951543;29;20340;-86
2023/06/10 09:40:49;;;;;;;;;;;;;;;;;;4949874;29;19929;-86
2023/06/10 09:43:36;;;;;;;;;;;;;;;;;;4940970;28;19918;-84
2023/06/10 09:46:22;;;;;;;;;;;;;;;;;;4940638;28;19929;-87
2023/06/10 09:49:09;;;;;;;;;;;;;;;;;;4947025;28;19937;-86
2023/06/10 09:51:56;;;;;;;;;;;;;;;;;;4938969;28;19919;-87
2023/06/10 09:54:42;;;;;;;;;;;;;;;;;;4948739;28;19922;-86
2023/06/10 09:57:29;;;;;;;;;;;;;;;;;;4947690;28;19929;-87
2023/06/10 10:00:15;;;;;;;;;;;;;;;;;;4941854;28;20403;-87
2023/06/10 10:03:02;;;;;;;;;;;;;;;;;;4941147;28;19927;-85
2023/06/10 10:05:48;;;;;;;;;;;;;;;;;;4943767;28;19941;-85
2023/06/10 10:08:35;;;;;;;;;;;;;;;;;;4942109;28;19922;-86
2023/06/10 10:11:26;;;;;;;;;;;;;;;;;;4949702;29;19934;-86
2023/06/10 10:14:13;;;;;;;;;;;;;;;;;;4947136;28;19922;-86
2023/06/10 10:16:59;;;;;;;;;;;;;;;;;;4937060;29;20584;-87
2023/06/10 10:19:47;;;;;;;;;;;;;;;;;;4945945;28;19934;-86
2023/06/10 10:22:33;;;;;;;;;;;;;;;;;;4955292;28;19915;-87
2023/06/10 10:25:20;;;;;;;;;;;;;;;;;;4950786;28;19925;-86
2023/06/10 10:28:06;;;;;;;;;;;;;;;;;;4939126;28;20314;-86
2023/06/10 10:30:53;;;;;;;;;;;;;;;;;;4952334;29;19929;-87
2023/06/10 10:33:39;;;;;;;;;;;;;;;;;;4947808;28;19918;-85
2023/06/10 10:36:26;;;;;;;;;;;;;;;;;;4954226;28;19927;-87
2023/06/10 10:39:12;;;;;;;;;;;;;;;;;;4944665;28;19922;-85
2023/06/10 10:41:59;;;;;;;;;;;;;;;;;;4942367;28;20310;-85
2023/06/10 10:44:46;;;;;;;;;;;;;;;;;;4938706;29;19925;-85
2023/06/10 10:47:32;;;;;;;;;;;;;;;;;;4947692;28;19922;-87
2023/06/10 10:50:19;;;;;;;;;;;;;;;;;;4932432;29;19942;-86
2023/06/10 10:53:05;;;;;;;;;;;;;;;;;;4937350;29;19918;-86
2023/06/10 10:55:52;;;;;;;;;;;;;;;;;;4946053;28;19926;-87
2023/06/10 10:58:38;;;;;;;;;;;;;;;;;;4954196;28;19922;-86
2023/06/10 11:01:25;;;;;;;;;;;;;;;;;;4938403;28;19927;-86
2023/06/10 11:04:11;;;;;;;;;;;;;;;;;;4945434;28;19918;-86
2023/06/10 11:06:58;;;;;;;;;;;;;;;;;;4947691;28;19926;-86
2023/06/10 11:09:44;;;;;;;;;;;;;;;;;;4946539;28;19956;-86
2023/06/10 11:12:31;;;;;;;;;;;;;;;;;;4945150;28;19925;-86
2023/06/10 11:15:17;;;;;;;;;;;;;;;;;;4945413;28;19925;-86
2023/06/10 11:18:04;;;;;;;;;;;;;;;;;;4945831;29;19922;-86
2023/06/10 11:20:51;;;;;;;;;;;;;;;;;;4951004;28;19914;-86
2023/06/10 11:23:37;;;;;;;;;;;;;;;;;;4946893;29;19922;-87
2023/06/10 11:26:31;;;;;;;;;;;;;;;;;;4946407;29;20334;-87
2023/06/10 11:29:17;;;;;;;;;;;;;;;;;;4944517;28;19927;-86
2023/06/10 11:32:03;;;;;;;;;;;;;;;;;;4954444;28;20572;-86
2023/06/10 11:34:50;;;;;;;;;;;;;;;;;;4936024;28;19925;-87
2023/06/10 11:37:36;;;;;;;;;;;;;;;;;;4937968;28;19914;-87
2023/06/10 11:40:23;;;;;;;;;;;;;;;;;;4939877;28;19922;-87
2023/06/10 11:43:10;;;;;;;;;;;;;;;;;;4937073;29;19999;-86
2023/06/10 11:45:56;;;;;;;;;;;;;;;;;;4938918;28;20631;-86
2023/06/10 11:48:43;;;;;;;;;;;;;;;;;;4940021;28;19925;-86
2023/06/10 11:51:29;;;;;;;;;;;;;;;;;;4943534;28;19934;-86
2023/06/10 11:54:16;;;;;;;;;;;;;;;;;;4950283;28;19919;-87
2023/06/10 11:57:08;;;;;;;;;;;;;;;;;;4934557;28;19919;-86
2023/06/10 11:59:54;;;;;;;;;;;;;;;;;;4938341;28;19930;-87
2023/06/10 12:02:40;;;;;;;;;;;;;;;;;;4946896;28;20401;-81
2023/06/10 12:05:27;;;;;;;;;;;;;;;;;;4938625;28;19922;-92
2023/06/10 12:08:13;;;;;;;;;;;;;;;;;;4933738;28;19930;-83
2023/06/10 12:11:00;;;;;;;;;;;;;;;;;;4932338;28;20405;-84
2023/06/10 12:13:50;;;;;;;;;;;;;;;;;;4926282;29;19929;-86
2023/06/10 12:16:36;;;;;;;;;;;;;;;;;;4927010;29;19922;-85
2023/06/10 12:19:23;;;;;;;;;;;;;;;;;;4939564;28;19938;-83
2023/06/10 12:22:09;;;;;;;;;;;;;;;;;;4935373;28;20297;-82
2023/06/10 12:24:56;;;;;;;;;;;;;;;;;;4936526;28;19918;-82
2023/06/10 12:27:43;;;;;;;;;;;;;;;;;;4942498;29;19954;-81
2023/06/10 12:30:29;;;;;;;;;;;;;;;;;;4937347;29;19934;-86
2023/06/10 12:33:16;;;;;;;;;;;;;;;;;;4937378;28;20038;-85
2023/06/10 12:36:02;;;;;;;;;;;;;;;;;;4942289;28;19923;-82
2023/06/10 12:38:52;;;;;;;;;;;;;;;;;;4921772;28;20806;-83
2023/06/10 12:41:38;;;;;;;;;;;;;;;;;;4946721;28;19922;-82
2023/06/10 12:44:25;;;;;;;;;;;;;;;;;;4927621;29;19926;-84
2023/06/10 12:47:14;;;;;;;;;;;;;;;;;;4936848;29;20309;-82
2023/06/10 12:50:01;;;;;;;;;;;;;;;;;;4942649;29;20004;-84
2023/06/10 12:52:47;;;;;;;;;;;;;;;;;;4938803;28;19919;-83
2023/06/10 12:55:34;;;;;;;;;;;;;;;;;;4936901;28;19925;-82
2023/06/10 12:58:21;;;;;;;;;;;;;;;;;;4943596;28;19918;-83
2023/06/10 13:01:08;;;;;;;;;;;;;;;;;;4935970;28;19999;-82
2023/06/10 13:03:55;;;;;;;;;;;;;;;;;;4942660;28;19933;-82
2023/06/10 13:06:41;;;;;;;;;;;;;;;;;;4937468;28;19922;-81
2023/06/10 13:09:28;;;;;;;;;;;;;;;;;;4942342;28;20386;-82
2023/06/10 13:12:14;;;;;;;;;;;;;;;;;;4934251;28;19934;-82
2023/06/10 13:15:01;;;;;;;;;;;;;;;;;;4929583;28;19923;-82
2023/06/10 13:17:48;;;;;;;;;;;;;;;;;;4938705;28;19925;-82
2023/06/10 13:20:35;;;;;;;;;;;;;;;;;;4944589;28;19918;-83
2023/06/10 13:23:22;;;;;;;;;;;;;;;;;;4936478;28;19930;-82
2023/06/10 13:26:09;;;;;;;;;;;;;;;;;;4932525;29;19918;-82
2023/06/10 13:28:55;;;;;;;;;;;;;;;;;;4937502;28;19952;-82
2023/06/10 13:31:42;;;;;;;;;;;;;;;;;;4941613;28;19927;-80
2023/06/10 13:34:28;;;;;;;;;;;;;;;;;;4944118;28;19938;-82
2023/06/10 13:37:17;;;;;;;;;;;;;;;;;;4947604;28;19919;-82
2023/06/10 13:40:04;;;;;;;;;;;;;;;;;;4941494;29;19933;-85
2023/06/10 13:42:52;;;;;;;;;;;;;;;;;;4940913;28;19945;-83
2023/06/10 13:45:38;;;;;;;;;;;;;;;;;;4938239;28;19915;-84
2023/06/10 13:48:25;;;;;;;;;;;;;;;;;;4933082;29;19918;-84
2023/06/10 13:51:12;;;;;;;;;;;;;;;;;;4932644;28;20474;-86
2023/06/10 13:53:58;;;;;;;;;;;;;;;;;;4942690;29;20387;-87
2023/06/10 13:56:45;;;;;;;;;;;;;;;;;;4929208;28;19923;-87
2023/06/10 13:59:31;;;;;;;;;;;;;;;;;;4940012;28;20318;-86
2023/06/10 14:02:17;;;;;;;;;;;;;;;;;;4937160;29;19926;-86
2023/06/10 14:05:05;;;;;;;;;;;;;;;;;;4944720;28;20007;-87
2023/06/10 14:07:51;;;;;;;;;;;;;;;;;;4929943;28;19923;-85
2023/06/10 14:10:38;;;;;;;;;;;;;;;;;;4942805;28;19936;-83
2023/06/10 14:13:24;;;;;;;;;;;;;;;;;;4933766;29;20615;-88
2023/06/10 14:16:11;;;;;;;;;;;;;;;;;;4939826;28;19930;-84
2023/06/10 14:18:57;;;;;;;;;;;;;;;;;;4941443;28;19934;-88
2023/06/10 14:21:44;;;;;;;;;;;;;;;;;;4936713;28;20290;-86
2023/06/10 14:24:30;;;;;;;;;;;;;;;;;;4944537;29;20405;-88
2023/06/10 14:27:17;;;;;;;;;;;;;;;;;;4930843;28;19931;-85
2023/06/10 14:30:04;;;;;;;;;;;;;;;;;;4938920;29;19957;-88
2023/06/10 14:32:50;;;;;;;;;;;;;;;;;;4943120;28;20386;-86
2023/06/10 14:35:37;;;;;;;;;;;;;;;;;;4937716;28;19918;-85
2023/06/10 14:38:24;;;;;;;;;;;;;;;;;;4939923;28;20636;-86
2023/06/10 14:41:10;;;;;;;;;;;;;;;;;;4940649;28;19922;-87
2023/06/10 14:43:56;;;;;;;;;;;;;;;;;;4944879;28;19942;-85
2023/06/10 14:46:43;;;;;;;;;;;;;;;;;;4946551;28;19927;-83
2023/06/10 14:49:29;;;;;;;;;;;;;;;;;;4946881;28;19937;-85
2023/06/10 14:52:16;;;;;;;;;;;;;;;;;;4936750;28;19933;-86
2023/06/10 14:55:02;;;;;;;;;;;;;;;;;;4933832;29;20442;-85
2023/06/10 14:57:49;;;;;;;;;;;;;;;;;;4920518;29;19939;-86
2023/06/10 15:00:36;;;;;;;;;;;;;;;;;;4924598;29;20536;-85
2023/06/10 15:03:22;;;;;;;;;;;;;;;;;;4942378;29;19944;-83
2023/06/10 15:06:09;;;;;;;;;;;;;;;;;;4943424;28;19932;-75
2023/06/10 15:08:55;;;;;;;;;;;;;;;;;;4937241;29;19928;-74
2023/06/10 15:11:42;;;;;;;;;;;;;;;;;;4941011;28;20305;-76
2023/06/10 15:14:28;;;;;;;;;;;;;;;;;;4937787;28;19923;-74
2023/06/10 15:17:15;;;;;;;;;;;;;;;;;;4943194;29;19923;-75
2023/06/10 15:20:01;;;;;;;;;;;;;;;;;;4934352;29;19925;-75
2023/06/10 15:22:48;;;;;;;;;;;;;;;;;;4946176;28;20028;-73
2023/06/10 15:25:34;;;;;;;;;;;;;;;;;;4945450;29;19925;-74
2023/06/10 15:28:21;;;;;;;;;;;;;;;;;;4945547;28;19931;-74
2023/06/10 15:31:07;;;;;;;;;;;;;;;;;;4943852;28;19930;-74
2023/06/10 15:33:54;;;;;;;;;;;;;;;;;;4941727;28;19922;-74
2023/06/10 15:36:40;;;;;;;;;;;;;;;;;;4946084;28;19930;-73
2023/06/10 15:39:27;;;;;;;;;;;;;;;;;;4946900;28;19945;-75
2023/06/10 15:42:13;;;;;;;;;;;;;;;;;;4941995;29;19923;-75
2023/06/10 15:45:00;;;;;;;;;;;;;;;;;;4943307;29;19926;-75
2023/06/10 15:47:46;;;;;;;;;;;;;;;;;;4944037;28;19922;-75
2023/06/10 15:50:33;;;;;;;;;;;;;;;;;;4945896;28;19922;-75
2023/06/10 15:53:19;;;;;;;;;;;;;;;;;;4937429;28;19922;-75
2023/06/10 15:56:06;;;;;;;;;;;;;;;;;;4940298;29;20389;-75
2023/06/10 15:58:52;;;;;;;;;;;;;;;;;;4942477;28;19919;-75
2023/06/10 16:01:39;;;;;;;;;;;;;;;;;;4939988;28;19926;-74
2023/06/10 16:04:25;;;;;;;;;;;;;;;;;;4939313;28;19922;-74
2023/06/10 16:07:12;;;;;;;;;;;;;;;;;;4940284;28;19935;-74
2023/06/10 16:09:58;;;;;;;;;;;;;;;;;;4936550;29;19927;-74
2023/06/10 16:12:45;;;;;;;;;;;;;;;;;;4936804;28;19926;-74
2023/06/10 16:15:31;;;;;;;;;;;;;;;;;;4941946;28;19926;-74
2023/06/10 16:18:18;;;;;;;;;;;;;;;;;;4936343;29;19931;-74
2023/06/10 16:21:05;;;;;;;;;;;;;;;;;;4933123;29;19921;-74
2023/06/10 16:23:51;;;;;;;;;;;;;;;;;;4938195;28;20007;-74
2023/06/10 16:26:38;;;;;;;;;;;;;;;;;;4936733;29;19919;-74
2023/06/10 16:29:25;;;;;;;;;;;;;;;;;;4942070;29;19918;-73
2023/06/10 16:32:11;;;;;;;;;;;;;;;;;;4937647;29;19953;-74
2023/06/10 16:34:58;;;;;;;;;;;;;;;;;;4933244;28;19919;-76
2023/06/10 16:37:44;;;;;;;;;;;;;;;;;;4932775;29;19919;-75
2023/06/10 16:40:31;;;;;;;;;;;;;;;;;;4931667;29;19923;-75
2023/06/10 16:43:17;;;;;;;;;;;;;;;;;;4929764;28;19922;-76
2023/06/10 16:46:04;;;;;;;;;;;;;;;;;;4932223;28;19922;-73
2023/06/10 16:48:50;;;;;;;;;;;;;;;;;;4941498;29;20481;-74
2023/06/10 16:51:37;;;;;;;;;;;;;;;;;;4942459;28;19941;-73
2023/06/10 16:54:24;;;;;;;;;;;;;;;;;;4943070;29;19956;-73
2023/06/10 16:57:10;;;;;;;;;;;;;;;;;;4937629;28;19940;-74
2023/06/10 16:59:57;;;;;;;;;;;;;;;;;;4939037;29;19919;-74
2023/06/10 17:02:43;;;;;;;;;;;;;;;;;;4940885;29;19918;-76
2023/06/10 17:05:30;;;;;;;;;;;;;;;;;;4942763;28;19927;-74
2023/06/10 17:08:16;;;;;;;;;;;;;;;;;;4936910;28;19930;-74
2023/06/10 17:11:03;;;;;;;;;;;;;;;;;;4936768;29;20623;-74
2023/06/10 17:13:50;;;;;;;;;;;;;;;;;;4931471;28;19952;-76
2023/06/10 17:16:36;;;;;;;;;;;;;;;;;;4943036;28;19963;-76
2023/06/10 17:19:23;;;;;;;;;;;;;;;;;;4937819;28;19944;-75
2023/06/10 17:22:09;;;;;;;;;;;;;;;;;;4935375;29;19941;-74
2023/06/10 17:24:56;;;;;;;;;;;;;;;;;;4940384;29;19941;-75
2023/06/10 17:27:43;;;;;;;;;;;;;;;;;;4936574;29;19953;-76
2023/06/10 17:30:29;;;;;;;;;;;;;;;;;;4942360;29;19950;-75
2023/06/10 17:33:16;;;;;;;;;;;;;;;;;;4940201;29;20371;-75
2023/06/10 17:36:02;;;;;;;;;;;;;;;;;;4941127;28;19922;-75
2023/06/10 17:38:49;;;;;;;;;;;;;;;;;;4941897;29;19925;-75
2023/06/10 17:41:35;;;;;;;;;;;;;;;;;;4935581;28;19930;-74
2023/06/10 17:44:24;;;;;;;;;;;;;;;;;;4943412;29;19919;-75
2023/06/10 17:47:10;;;;;;;;;;;;;;;;;;4940714;29;19922;-74
2023/06/10 17:49:57;;;;;;;;;;;;;;;;;;4938981;28;19926;-74
2023/06/10 17:52:43;;;;;;;;;;;;;;;;;;4937742;28;19930;-75
2023/06/10 17:55:30;;;;;;;;;;;;;;;;;;4938924;28;19938;-74
2023/06/10 17:58:20;;;;;;;;;;;;;;;;;;4929265;29;19923;-74
2023/06/10 18:01:07;;;;;;;;;;;;;;;;;;4931887;28;19930;-73
2023/06/10 18:03:53;;;;;;;;;;;;;;;;;;4924210;29;20538;-73
2023/06/10 18:06:39;;;;;;;;;;;;;;;;;;4946929;29;19919;-72
2023/06/10 18:09:26;;;;;;;;;;;;;;;;;;4943022;28;19937;-73
2023/06/10 18:12:13;;;;;;;;;;;;;;;;;;4944429;28;19959;-73
2023/06/10 18:14:59;;;;;;;;;;;;;;;;;;4946566;29;19918;-74
2023/06/10 18:17:46;;;;;;;;;;;;;;;;;;4942961;29;19930;-74
2023/06/10 18:20:32;;;;;;;;;;;;;;;;;;4949089;28;19926;-74
2023/06/10 18:23:18;;;;;;;;;;;;;;;;;;4942333;28;20405;-74
2023/06/10 18:26:05;;;;;;;;;;;;;;;;;;4947748;28;20295;-75
2023/06/10 18:28:51;;;;;;;;;;;;;;;;;;4944078;29;19930;-74
2023/06/10 18:31:38;;;;;;;;;;;;;;;;;;4948394;28;19931;-74
2023/06/10 18:34:24;;;;;;;;;;;;;;;;;;4935830;28;19929;-74
2023/06/10 18:37:11;;;;;;;;;;;;;;;;;;4930989;28;20393;-75
2023/06/10 18:39:57;;;;;;;;;;;;;;;;;;4943268;29;19929;-75
2023/06/10 18:42:44;;;;;;;;;;;;;;;;;;4943576;29;19914;-75
2023/06/10 18:45:30;;;;;;;;;;;;;;;;;;4940463;28;19926;-73
2023/06/10 18:48:17;;;;;;;;;;;;;;;;;;4946077;28;19927;-73
2023/06/10 18:51:03;;;;;;;;;;;;;;;;;;4935880;29;20446;-74
2023/06/10 18:53:50;;;;;;;;;;;;;;;;;;4946444;28;19922;-74
2023/06/10 18:56:36;;;;;;;;;;;;;;;;;;4941014;29;19918;-73